sensor_id;sensor_type;location;lat;lon;timestamp;P1;durP1;ratioP1;P2;durP2;ratioP2
41829;SDS011;38614;43.472;23.936;2022-08-19T00:01:43;3.58;;;2.60;;
41829;SDS011;38614;43.472;23.936;2022-08-19T00:04:39;2.85;;;2.50;;
41829;SDS011;38614;43.472;23.936;2022-08-19T00:07:27;4.00;;;2.72;;
41829;SDS011;38614;43.472;23.936;2022-08-19T00:10:15;5.30;;;3.30;;
41829;SDS011;38614;43.472;23.936;2022-08-19T00:13:04;5.18;;;2.60;;
41829;SDS011;38614;43.472;23.936;2022-08-19T00:15:51;4.80;;;2.17;;
41829;SDS011;38614;43.472;23.936;2022-08-19T00:18:39;2.70;;;2.00;;
41829;SDS011;38614;43.472;23.936;2022-08-19T00:21:27;5.78;;;3.28;;
41829;SDS011;38614;43.472;23.936;2022-08-19T00:24:15;3.80;;;2.85;;
41829;SDS011;38614;43.472;23.936;2022-08-19T00:27:03;5.10;;;2.83;;
41829;SDS011;38614;43.472;23.936;2022-08-19T00:30:11;8.60;;;2.85;;
41829;SDS011;38614;43.472;23.936;2022-08-19T00:32:59;3.10;;;2.50;;
41829;SDS011;38614;43.472;23.936;2022-08-19T00:35:47;3.30;;;3.00;;
41829;SDS011;38614;43.472;23.936;2022-08-19T00:38:42;5.57;;;2.55;;
41829;SDS011;38614;43.472;23.936;2022-08-19T00:41:30;4.00;;;2.50;;
41829;SDS011;38614;43.472;23.936;2022-08-19T00:44:23;7.53;;;2.85;;
41829;SDS011;38614;43.472;23.936;2022-08-19T00:47:13;3.33;;;3.03;;
41829;SDS011;38614;43.472;23.936;2022-08-19T00:50:01;8.10;;;3.67;;
41829;SDS011;38614;43.472;23.936;2022-08-19T00:52:49;3.60;;;3.30;;
41829;SDS011;38614;43.472;23.936;2022-08-19T00:55:38;4.57;;;3.25;;
41829;SDS011;38614;43.472;23.936;2022-08-19T00:58:27;4.68;;;3.03;;
41829;SDS011;38614;43.472;23.936;2022-08-19T01:01:19;7.75;;;3.38;;
41829;SDS011;38614;43.472;23.936;2022-08-19T01:04:07;3.67;;;2.45;;
41829;SDS011;38614;43.472;23.936;2022-08-19T01:06:55;7.90;;;3.03;;
41829;SDS011;38614;43.472;23.936;2022-08-19T01:09:44;12.63;;;3.30;;
41829;SDS011;38614;43.472;23.936;2022-08-19T01:12:32;12.55;;;5.82;;
41829;SDS011;38614;43.472;23.936;2022-08-19T01:15:23;13.73;;;6.80;;
41829;SDS011;38614;43.472;23.936;2022-08-19T01:18:15;12.93;;;5.68;;
41829;SDS011;38614;43.472;23.936;2022-08-19T01:21:07;14.50;;;6.13;;
41829;SDS011;38614;43.472;23.936;2022-08-19T01:24:03;13.45;;;4.68;;
41829;SDS011;38614;43.472;23.936;2022-08-19T01:26:51;4.55;;;3.05;;
41829;SDS011;38614;43.472;23.936;2022-08-19T01:29:40;5.13;;;2.45;;
41829;SDS011;38614;43.472;23.936;2022-08-19T01:32:30;2.83;;;2.33;;
41829;SDS011;38614;43.472;23.936;2022-08-19T01:35:20;3.25;;;2.95;;
41829;SDS011;38614;43.472;23.936;2022-08-19T01:38:19;6.82;;;3.15;;
41829;SDS011;38614;43.472;23.936;2022-08-19T01:41:12;7.88;;;3.58;;
41829;SDS011;38614;43.472;23.936;2022-08-19T01:44:00;7.38;;;3.40;;
41829;SDS011;38614;43.472;23.936;2022-08-19T01:47:05;8.70;;;3.58;;
41829;SDS011;38614;43.472;23.936;2022-08-19T01:49:53;7.55;;;3.30;;
41829;SDS011;38614;43.472;23.936;2022-08-19T01:52:42;5.68;;;3.63;;
41829;SDS011;38614;43.472;23.936;2022-08-19T01:55:31;6.20;;;3.60;;
41829;SDS011;38614;43.472;23.936;2022-08-19T01:58:21;7.35;;;3.95;;
41829;SDS011;38614;43.472;23.936;2022-08-19T02:01:12;9.80;;;3.60;;
41829;SDS011;38614;43.472;23.936;2022-08-19T02:04:01;4.97;;;3.35;;
41829;SDS011;38614;43.472;23.936;2022-08-19T02:06:49;5.80;;;3.38;;
41829;SDS011;38614;43.472;23.936;2022-08-19T02:09:37;7.10;;;3.83;;
41829;SDS011;38614;43.472;23.936;2022-08-19T02:12:25;6.15;;;4.10;;
41829;SDS011;38614;43.472;23.936;2022-08-19T02:15:13;3.80;;;3.33;;
41829;SDS011;38614;43.472;23.936;2022-08-19T02:18:00;5.28;;;3.47;;
41829;SDS011;38614;43.472;23.936;2022-08-19T02:20:48;5.03;;;3.38;;
41829;SDS011;38614;43.472;23.936;2022-08-19T02:23:36;5.05;;;3.53;;
41829;SDS011;38614;43.472;23.936;2022-08-19T02:26:24;7.28;;;3.30;;
41829;SDS011;38614;43.472;23.936;2022-08-19T02:29:13;6.65;;;3.13;;
41829;SDS011;38614;43.472;23.936;2022-08-19T02:32:01;11.95;;;3.25;;
41829;SDS011;38614;43.472;23.936;2022-08-19T02:34:51;7.75;;;3.15;;
41829;SDS011;38614;43.472;23.936;2022-08-19T02:37:40;7.22;;;2.67;;
41829;SDS011;38614;43.472;23.936;2022-08-19T02:40:50;7.10;;;3.28;;
41829;SDS011;38614;43.472;23.936;2022-08-19T02:43:39;14.65;;;4.03;;
41829;SDS011;38614;43.472;23.936;2022-08-19T02:46:48;7.97;;;3.20;;
41829;SDS011;38614;43.472;23.936;2022-08-19T02:49:37;5.53;;;3.28;;
41829;SDS011;38614;43.472;23.936;2022-08-19T02:52:25;8.00;;;2.75;;
41829;SDS011;38614;43.472;23.936;2022-08-19T02:55:14;6.38;;;3.17;;
41829;SDS011;38614;43.472;23.936;2022-08-19T02:58:02;4.07;;;3.35;;
41829;SDS011;38614;43.472;23.936;2022-08-19T03:00:51;5.25;;;2.72;;
41829;SDS011;38614;43.472;23.936;2022-08-19T03:03:41;3.72;;;2.40;;
41829;SDS011;38614;43.472;23.936;2022-08-19T03:06:29;4.65;;;2.83;;
41829;SDS011;38614;43.472;23.936;2022-08-19T03:09:18;6.35;;;3.83;;
41829;SDS011;38614;43.472;23.936;2022-08-19T03:12:07;6.03;;;3.15;;
41829;SDS011;38614;43.472;23.936;2022-08-19T03:14:56;3.30;;;2.85;;
41829;SDS011;38614;43.472;23.936;2022-08-19T03:17:45;3.30;;;2.95;;
41829;SDS011;38614;43.472;23.936;2022-08-19T03:20:33;4.80;;;2.55;;
41829;SDS011;38614;43.472;23.936;2022-08-19T03:23:21;2.92;;;2.65;;
41829;SDS011;38614;43.472;23.936;2022-08-19T03:26:10;3.42;;;2.70;;
41829;SDS011;38614;43.472;23.936;2022-08-19T03:29:03;3.42;;;3.03;;
41829;SDS011;38614;43.472;23.936;2022-08-19T03:31:52;4.25;;;3.10;;
41829;SDS011;38614;43.472;23.936;2022-08-19T03:34:41;3.40;;;3.10;;
41829;SDS011;38614;43.472;23.936;2022-08-19T03:37:29;2.95;;;2.65;;
41829;SDS011;38614;43.472;23.936;2022-08-19T03:40:19;4.72;;;2.50;;
41829;SDS011;38614;43.472;23.936;2022-08-19T03:43:10;4.63;;;2.92;;
41829;SDS011;38614;43.472;23.936;2022-08-19T03:46:04;3.05;;;2.78;;
41829;SDS011;38614;43.472;23.936;2022-08-19T03:48:58;4.40;;;2.65;;
41829;SDS011;38614;43.472;23.936;2022-08-19T03:51:48;4.30;;;2.88;;
41829;SDS011;38614;43.472;23.936;2022-08-19T03:54:39;2.83;;;2.60;;
41829;SDS011;38614;43.472;23.936;2022-08-19T03:57:27;6.13;;;2.88;;
41829;SDS011;38614;43.472;23.936;2022-08-19T04:00:18;4.43;;;2.73;;
41829;SDS011;38614;43.472;23.936;2022-08-19T04:03:05;5.28;;;2.35;;
41829;SDS011;38614;43.472;23.936;2022-08-19T04:05:53;2.67;;;2.47;;
41829;SDS011;38614;43.472;23.936;2022-08-19T04:08:42;4.70;;;3.25;;
41829;SDS011;38614;43.472;23.936;2022-08-19T04:11:36;10.13;;;3.00;;
41829;SDS011;38614;43.472;23.936;2022-08-19T04:14:31;4.18;;;3.20;;
41829;SDS011;38614;43.472;23.936;2022-08-19T04:17:19;8.35;;;4.38;;
41829;SDS011;38614;43.472;23.936;2022-08-19T04:20:06;4.68;;;3.28;;
41829;SDS011;38614;43.472;23.936;2022-08-19T04:23:13;10.00;;;3.80;;
41829;SDS011;38614;43.472;23.936;2022-08-19T04:26:01;8.35;;;3.60;;
41829;SDS011;38614;43.472;23.936;2022-08-19T04:28:50;8.93;;;4.68;;
41829;SDS011;38614;43.472;23.936;2022-08-19T04:31:39;6.70;;;3.35;;
41829;SDS011;38614;43.472;23.936;2022-08-19T04:34:28;15.82;;;4.15;;
41829;SDS011;38614;43.472;23.936;2022-08-19T04:37:19;10.27;;;4.30;;
41829;SDS011;38614;43.472;23.936;2022-08-19T04:40:09;11.48;;;8.13;;
41829;SDS011;38614;43.472;23.936;2022-08-19T04:43:16;22.48;;;8.27;;
41829;SDS011;38614;43.472;23.936;2022-08-19T04:46:05;12.65;;;6.88;;
41829;SDS011;38614;43.472;23.936;2022-08-19T04:49:20;9.77;;;4.50;;
41829;SDS011;38614;43.472;23.936;2022-08-19T04:52:09;10.68;;;3.67;;
41829;SDS011;38614;43.472;23.936;2022-08-19T04:54:57;9.63;;;3.60;;
41829;SDS011;38614;43.472;23.936;2022-08-19T04:57:46;9.60;;;3.13;;
41829;SDS011;38614;43.472;23.936;2022-08-19T05:00:36;11.85;;;2.17;;
41829;SDS011;38614;43.472;23.936;2022-08-19T05:03:27;7.10;;;2.60;;
41829;SDS011;38614;43.472;23.936;2022-08-19T05:06:19;4.00;;;2.45;;
41829;SDS011;38614;43.472;23.936;2022-08-19T05:09:08;8.35;;;2.55;;
41829;SDS011;38614;43.472;23.936;2022-08-19T05:11:56;3.13;;;2.08;;
41829;SDS011;38614;43.472;23.936;2022-08-19T05:14:47;7.13;;;1.98;;
41829;SDS011;38614;43.472;23.936;2022-08-19T05:17:40;6.50;;;2.38;;
41829;SDS011;38614;43.472;23.936;2022-08-19T05:20:48;6.28;;;2.20;;
41829;SDS011;38614;43.472;23.936;2022-08-19T05:23:54;3.47;;;2.38;;
41829;SDS011;38614;43.472;23.936;2022-08-19T05:26:48;4.18;;;2.13;;
41829;SDS011;38614;43.472;23.936;2022-08-19T05:30:05;3.97;;;2.10;;
41829;SDS011;38614;43.472;23.936;2022-08-19T05:32:57;6.53;;;2.38;;
41829;SDS011;38614;43.472;23.936;2022-08-19T05:36:06;3.25;;;1.42;;
41829;SDS011;38614;43.472;23.936;2022-08-19T05:39:11;5.32;;;2.17;;
41829;SDS011;38614;43.472;23.936;2022-08-19T05:42:03;4.22;;;2.30;;
41829;SDS011;38614;43.472;23.936;2022-08-19T05:44:58;3.65;;;2.17;;
41829;SDS011;38614;43.472;23.936;2022-08-19T05:47:46;9.10;;;2.65;;
41829;SDS011;38614;43.472;23.936;2022-08-19T05:50:35;4.68;;;3.15;;
41829;SDS011;38614;43.472;23.936;2022-08-19T05:53:24;9.88;;;3.13;;
41829;SDS011;38614;43.472;23.936;2022-08-19T05:56:15;6.47;;;3.65;;
41829;SDS011;38614;43.472;23.936;2022-08-19T05:59:07;4.97;;;2.35;;
41829;SDS011;38614;43.472;23.936;2022-08-19T06:01:56;4.25;;;2.30;;
41829;SDS011;38614;43.472;23.936;2022-08-19T06:04:44;2.70;;;1.92;;
41829;SDS011;38614;43.472;23.936;2022-08-19T06:07:32;2.03;;;1.75;;
41829;SDS011;38614;43.472;23.936;2022-08-19T06:10:21;18.13;;;1.70;;
41829;SDS011;38614;43.472;23.936;2022-08-19T06:13:11;5.10;;;1.60;;
41829;SDS011;38614;43.472;23.936;2022-08-19T06:15:59;4.50;;;1.75;;
41829;SDS011;38614;43.472;23.936;2022-08-19T06:18:47;5.50;;;1.70;;
41829;SDS011;38614;43.472;23.936;2022-08-19T06:24:30;6.38;;;1.73;;
41829;SDS011;38614;43.472;23.936;2022-08-19T06:27:19;2.17;;;1.60;;
41829;SDS011;38614;43.472;23.936;2022-08-19T06:30:10;2.75;;;1.52;;
41829;SDS011;38614;43.472;23.936;2022-08-19T06:32:59;2.75;;;1.40;;
41829;SDS011;38614;43.472;23.936;2022-08-19T06:35:47;4.53;;;1.83;;
41829;SDS011;38614;43.472;23.936;2022-08-19T06:38:34;2.55;;;2.15;;
41829;SDS011;38614;43.472;23.936;2022-08-19T06:41:29;4.15;;;1.98;;
41829;SDS011;38614;43.472;23.936;2022-08-19T06:44:26;2.28;;;2.10;;
41829;SDS011;38614;43.472;23.936;2022-08-19T06:47:18;10.80;;;1.88;;
41829;SDS011;38614;43.472;23.936;2022-08-19T06:50:10;2.25;;;1.50;;
41829;SDS011;38614;43.472;23.936;2022-08-19T06:52:58;3.05;;;1.45;;
41829;SDS011;38614;43.472;23.936;2022-08-19T06:55:47;1.80;;;1.60;;
41829;SDS011;38614;43.472;23.936;2022-08-19T06:58:35;5.15;;;1.35;;
41829;SDS011;38614;43.472;23.936;2022-08-19T07:01:22;2.78;;;1.35;;
41829;SDS011;38614;43.472;23.936;2022-08-19T07:04:10;1.55;;;1.45;;
41829;SDS011;38614;43.472;23.936;2022-08-19T07:06:59;2.60;;;1.27;;
41829;SDS011;38614;43.472;23.936;2022-08-19T07:10:06;2.45;;;1.83;;
41829;SDS011;38614;43.472;23.936;2022-08-19T07:12:54;4.22;;;1.55;;
41829;SDS011;38614;43.472;23.936;2022-08-19T07:15:42;1.70;;;1.60;;
41829;SDS011;38614;43.472;23.936;2022-08-19T07:18:29;3.08;;;1.63;;
41829;SDS011;38614;43.472;23.936;2022-08-19T07:21:21;3.72;;;1.30;;
41829;SDS011;38614;43.472;23.936;2022-08-19T07:24:16;6.57;;;2.28;;
41829;SDS011;38614;43.472;23.936;2022-08-19T07:27:04;13.88;;;2.10;;
41829;SDS011;38614;43.472;23.936;2022-08-19T07:30:01;2.22;;;1.65;;
41829;SDS011;38614;43.472;23.936;2022-08-19T07:32:50;3.17;;;1.33;;
41829;SDS011;38614;43.472;23.936;2022-08-19T07:35:39;1.48;;;1.10;;
41829;SDS011;38614;43.472;23.936;2022-08-19T07:38:27;6.10;;;1.55;;
41829;SDS011;38614;43.472;23.936;2022-08-19T07:41:17;6.43;;;1.30;;
41829;SDS011;38614;43.472;23.936;2022-08-19T07:44:06;3.03;;;1.40;;
41829;SDS011;38614;43.472;23.936;2022-08-19T07:46:55;8.02;;;2.17;;
41829;SDS011;38614;43.472;23.936;2022-08-19T07:49:43;4.32;;;2.05;;
41829;SDS011;38614;43.472;23.936;2022-08-19T07:52:31;3.92;;;1.65;;
41829;SDS011;38614;43.472;23.936;2022-08-19T07:55:22;6.38;;;1.40;;
41829;SDS011;38614;43.472;23.936;2022-08-19T07:58:30;3.65;;;1.15;;
41829;SDS011;38614;43.472;23.936;2022-08-19T08:01:20;2.17;;;1.55;;
41829;SDS011;38614;43.472;23.936;2022-08-19T08:04:09;3.72;;;1.48;;
41829;SDS011;38614;43.472;23.936;2022-08-19T08:07:17;4.90;;;1.42;;
41829;SDS011;38614;43.472;23.936;2022-08-19T08:10:24;4.57;;;1.23;;
41829;SDS011;38614;43.472;23.936;2022-08-19T08:13:12;3.78;;;1.58;;
41829;SDS011;38614;43.472;23.936;2022-08-19T08:16:03;3.85;;;1.52;;
41829;SDS011;38614;43.472;23.936;2022-08-19T08:18:57;2.63;;;1.23;;
41829;SDS011;38614;43.472;23.936;2022-08-19T08:21:44;5.05;;;1.48;;
41829;SDS011;38614;43.472;23.936;2022-08-19T08:24:35;4.13;;;1.48;;
41829;SDS011;38614;43.472;23.936;2022-08-19T08:27:28;2.78;;;1.05;;
41829;SDS011;38614;43.472;23.936;2022-08-19T08:30:21;2.45;;;1.13;;
41829;SDS011;38614;43.472;23.936;2022-08-19T08:33:10;4.15;;;1.60;;
41829;SDS011;38614;43.472;23.936;2022-08-19T08:35:57;28.48;;;4.75;;
41829;SDS011;38614;43.472;23.936;2022-08-19T08:38:49;6.68;;;2.13;;
41829;SDS011;38614;43.472;23.936;2022-08-19T08:44:43;21.90;;;5.78;;
41829;SDS011;38614;43.472;23.936;2022-08-19T08:47:36;18.27;;;4.80;;
41829;SDS011;38614;43.472;23.936;2022-08-19T08:50:35;89.35;;;15.32;;
41829;SDS011;38614;43.472;23.936;2022-08-19T08:53:24;2.47;;;1.30;;
41829;SDS011;38614;43.472;23.936;2022-08-19T08:56:22;9.25;;;3.47;;
41829;SDS011;38614;43.472;23.936;2022-08-19T09:02:27;1.40;;;1.30;;
41829;SDS011;38614;43.472;23.936;2022-08-19T09:05:15;3.13;;;1.90;;
41829;SDS011;38614;43.472;23.936;2022-08-19T09:08:10;4.18;;;1.40;;
41829;SDS011;38614;43.472;23.936;2022-08-19T09:11:09;9.05;;;2.35;;
41829;SDS011;38614;43.472;23.936;2022-08-19T09:17:38;1.75;;;1.65;;
41829;SDS011;38614;43.472;23.936;2022-08-19T09:20:26;2.90;;;1.25;;
41829;SDS011;38614;43.472;23.936;2022-08-19T09:23:14;5.10;;;1.77;;
41829;SDS011;38614;43.472;23.936;2022-08-19T09:26:05;1.60;;;1.08;;
41829;SDS011;38614;43.472;23.936;2022-08-19T09:28:56;2.10;;;1.00;;
41829;SDS011;38614;43.472;23.936;2022-08-19T09:31:49;2.75;;;1.80;;
41829;SDS011;38614;43.472;23.936;2022-08-19T09:34:51;3.45;;;1.17;;
41829;SDS011;38614;43.472;23.936;2022-08-19T09:37:42;3.13;;;1.77;;
41829;SDS011;38614;43.472;23.936;2022-08-19T09:40:30;3.53;;;1.63;;
41829;SDS011;38614;43.472;23.936;2022-08-19T09:43:24;4.22;;;1.98;;
41829;SDS011;38614;43.472;23.936;2022-08-19T09:46:19;3.45;;;1.38;;
41829;SDS011;38614;43.472;23.936;2022-08-19T09:49:11;7.85;;;1.30;;
41829;SDS011;38614;43.472;23.936;2022-08-19T09:51:59;1.58;;;1.13;;
41829;SDS011;38614;43.472;23.936;2022-08-19T09:54:46;2.38;;;1.45;;
41829;SDS011;38614;43.472;23.936;2022-08-19T09:57:38;4.28;;;1.30;;
41829;SDS011;38614;43.472;23.936;2022-08-19T10:00:25;5.78;;;1.65;;
41829;SDS011;38614;43.472;23.936;2022-08-19T10:03:13;3.50;;;1.58;;
41829;SDS011;38614;43.472;23.936;2022-08-19T10:06:02;9.50;;;4.03;;
41829;SDS011;38614;43.472;23.936;2022-08-19T10:08:50;1.92;;;1.52;;
41829;SDS011;38614;43.472;23.936;2022-08-19T10:11:42;1.70;;;1.33;;
41829;SDS011;38614;43.472;23.936;2022-08-19T10:14:39;10.75;;;2.17;;
41829;SDS011;38614;43.472;23.936;2022-08-19T10:17:27;2.28;;;1.90;;
41829;SDS011;38614;43.472;23.936;2022-08-19T10:20:19;2.80;;;1.33;;
41829;SDS011;38614;43.472;23.936;2022-08-19T10:23:07;7.65;;;1.55;;
41829;SDS011;38614;43.472;23.936;2022-08-19T10:25:59;2.10;;;1.33;;
41829;SDS011;38614;43.472;23.936;2022-08-19T10:28:47;1.33;;;0.90;;
41829;SDS011;38614;43.472;23.936;2022-08-19T10:31:36;1.55;;;1.25;;
41829;SDS011;38614;43.472;23.936;2022-08-19T10:34:44;2.93;;;1.10;;
41829;SDS011;38614;43.472;23.936;2022-08-19T10:40:22;1.45;;;1.27;;
41829;SDS011;38614;43.472;23.936;2022-08-19T10:43:09;1.83;;;1.02;;
41829;SDS011;38614;43.472;23.936;2022-08-19T10:45:57;1.50;;;1.08;;
41829;SDS011;38614;43.472;23.936;2022-08-19T10:48:46;3.17;;;1.05;;
41829;SDS011;38614;43.472;23.936;2022-08-19T10:51:36;2.13;;;0.95;;
41829;SDS011;38614;43.472;23.936;2022-08-19T10:54:44;2.30;;;0.85;;
41829;SDS011;38614;43.472;23.936;2022-08-19T10:57:51;2.72;;;1.58;;
41829;SDS011;38614;43.472;23.936;2022-08-19T11:00:52;3.72;;;1.40;;
41829;SDS011;38614;43.472;23.936;2022-08-19T11:03:42;6.40;;;1.30;;
41829;SDS011;38614;43.472;23.936;2022-08-19T11:06:32;2.35;;;1.35;;
41829;SDS011;38614;43.472;23.936;2022-08-19T11:09:23;1.70;;;1.40;;
41829;SDS011;38614;43.472;23.936;2022-08-19T11:12:21;4.18;;;1.40;;
41829;SDS011;38614;43.472;23.936;2022-08-19T11:15:09;5.68;;;1.02;;
41829;SDS011;38614;43.472;23.936;2022-08-19T11:17:58;1.85;;;1.05;;
41829;SDS011;38614;43.472;23.936;2022-08-19T11:20:45;2.38;;;0.77;;
41829;SDS011;38614;43.472;23.936;2022-08-19T11:23:35;1.35;;;1.25;;
41829;SDS011;38614;43.472;23.936;2022-08-19T11:26:23;1.23;;;1.10;;
41829;SDS011;38614;43.472;23.936;2022-08-19T11:29:12;5.32;;;0.82;;
41829;SDS011;38614;43.472;23.936;2022-08-19T11:32:03;7.07;;;1.75;;
41829;SDS011;38614;43.472;23.936;2022-08-19T11:34:51;2.25;;;1.05;;
41829;SDS011;38614;43.472;23.936;2022-08-19T11:37:39;4.60;;;1.52;;
41829;SDS011;38614;43.472;23.936;2022-08-19T11:40:27;3.30;;;1.50;;
41829;SDS011;38614;43.472;23.936;2022-08-19T11:43:17;2.50;;;1.10;;
41829;SDS011;38614;43.472;23.936;2022-08-19T11:46:08;1.83;;;0.98;;
41829;SDS011;38614;43.472;23.936;2022-08-19T11:49:07;4.47;;;1.50;;
41829;SDS011;38614;43.472;23.936;2022-08-19T11:52:00;8.20;;;1.65;;
41829;SDS011;38614;43.472;23.936;2022-08-19T11:54:48;7.15;;;1.52;;
41829;SDS011;38614;43.472;23.936;2022-08-19T11:57:36;8.77;;;1.80;;
41829;SDS011;38614;43.472;23.936;2022-08-19T12:00:23;3.55;;;0.93;;
41829;SDS011;38614;43.472;23.936;2022-08-19T12:03:13;2.50;;;1.38;;
41829;SDS011;38614;43.472;23.936;2022-08-19T12:06:03;1.60;;;1.35;;
41829;SDS011;38614;43.472;23.936;2022-08-19T12:08:58;5.40;;;1.17;;
41829;SDS011;38614;43.472;23.936;2022-08-19T12:11:46;4.43;;;1.20;;
41829;SDS011;38614;43.472;23.936;2022-08-19T12:14:36;7.63;;;0.80;;
41829;SDS011;38614;43.472;23.936;2022-08-19T12:17:26;3.38;;;1.88;;
41829;SDS011;38614;43.472;23.936;2022-08-19T12:20:14;3.05;;;1.33;;
41829;SDS011;38614;43.472;23.936;2022-08-19T12:23:04;1.55;;;1.27;;
41829;SDS011;38614;43.472;23.936;2022-08-19T12:25:53;2.53;;;1.63;;
41829;SDS011;38614;43.472;23.936;2022-08-19T12:28:41;5.88;;;1.40;;
41829;SDS011;38614;43.472;23.936;2022-08-19T12:31:30;2.83;;;1.40;;
41829;SDS011;38614;43.472;23.936;2022-08-19T12:34:18;3.95;;;1.30;;
41829;SDS011;38614;43.472;23.936;2022-08-19T12:37:09;9.77;;;1.35;;
41829;SDS011;38614;43.472;23.936;2022-08-19T12:39:58;7.57;;;0.88;;
41829;SDS011;38614;43.472;23.936;2022-08-19T12:42:45;5.88;;;0.98;;
41829;SDS011;38614;43.472;23.936;2022-08-19T12:45:38;1.60;;;1.50;;
41829;SDS011;38614;43.472;23.936;2022-08-19T12:48:27;9.13;;;1.25;;
41829;SDS011;38614;43.472;23.936;2022-08-19T12:51:20;1.90;;;1.30;;
41829;SDS011;38614;43.472;23.936;2022-08-19T12:54:08;1.77;;;1.33;;
41829;SDS011;38614;43.472;23.936;2022-08-19T12:56:58;6.40;;;1.88;;
41829;SDS011;38614;43.472;23.936;2022-08-19T12:59:48;0.82;;;0.82;;
41829;SDS011;38614;43.472;23.936;2022-08-19T13:02:40;2.05;;;1.20;;
41829;SDS011;38614;43.472;23.936;2022-08-19T13:05:37;4.63;;;2.15;;
41829;SDS011;38614;43.472;23.936;2022-08-19T13:11:18;3.92;;;1.15;;
41829;SDS011;38614;43.472;23.936;2022-08-19T13:14:06;2.17;;;1.50;;
41829;SDS011;38614;43.472;23.936;2022-08-19T13:16:55;5.55;;;1.42;;
41829;SDS011;38614;43.472;23.936;2022-08-19T13:19:45;6.45;;;1.75;;
41829;SDS011;38614;43.472;23.936;2022-08-19T13:22:37;6.38;;;1.58;;
41829;SDS011;38614;43.472;23.936;2022-08-19T13:25:27;2.63;;;1.38;;
41829;SDS011;38614;43.472;23.936;2022-08-19T13:28:15;1.63;;;1.50;;
41829;SDS011;38614;43.472;23.936;2022-08-19T13:31:05;4.50;;;2.03;;
41829;SDS011;38614;43.472;23.936;2022-08-19T13:34:11;3.83;;;1.35;;
41829;SDS011;38614;43.472;23.936;2022-08-19T13:36:59;7.88;;;1.15;;
41829;SDS011;38614;43.472;23.936;2022-08-19T13:39:47;1.98;;;1.20;;
41829;SDS011;38614;43.472;23.936;2022-08-19T13:42:35;5.22;;;1.48;;
41829;SDS011;38614;43.472;23.936;2022-08-19T13:45:26;4.47;;;1.60;;
41829;SDS011;38614;43.472;23.936;2022-08-19T13:48:13;1.35;;;1.25;;
41829;SDS011;38614;43.472;23.936;2022-08-19T13:51:01;5.50;;;1.75;;
41829;SDS011;38614;43.472;23.936;2022-08-19T13:53:52;3.17;;;1.27;;
41829;SDS011;38614;43.472;23.936;2022-08-19T13:56:43;5.80;;;2.17;;
41829;SDS011;38614;43.472;23.936;2022-08-19T13:59:31;2.15;;;1.10;;
41829;SDS011;38614;43.472;23.936;2022-08-19T14:02:20;2.95;;;1.40;;
41829;SDS011;38614;43.472;23.936;2022-08-19T14:05:09;2.38;;;1.58;;
41829;SDS011;38614;43.472;23.936;2022-08-19T14:07:58;1.10;;;1.02;;
41829;SDS011;38614;43.472;23.936;2022-08-19T14:10:49;4.55;;;1.70;;
41829;SDS011;38614;43.472;23.936;2022-08-19T14:13:37;6.32;;;1.35;;
41829;SDS011;38614;43.472;23.936;2022-08-19T14:16:24;3.08;;;1.77;;
41829;SDS011;38614;43.472;23.936;2022-08-19T14:19:12;3.03;;;1.55;;
41829;SDS011;38614;43.472;23.936;2022-08-19T14:22:01;2.55;;;1.10;;
41829;SDS011;38614;43.472;23.936;2022-08-19T14:24:49;4.03;;;1.27;;
41829;SDS011;38614;43.472;23.936;2022-08-19T14:27:37;1.30;;;1.10;;
41829;SDS011;38614;43.472;23.936;2022-08-19T14:30:27;7.10;;;1.85;;
41829;SDS011;38614;43.472;23.936;2022-08-19T14:33:15;5.53;;;1.95;;
41829;SDS011;38614;43.472;23.936;2022-08-19T14:36:04;2.90;;;1.30;;
41829;SDS011;38614;43.472;23.936;2022-08-19T14:38:51;4.28;;;1.45;;
41829;SDS011;38614;43.472;23.936;2022-08-19T14:41:39;4.20;;;1.92;;
41829;SDS011;38614;43.472;23.936;2022-08-19T14:44:32;2.22;;;1.65;;
41829;SDS011;38614;43.472;23.936;2022-08-19T14:47:21;4.05;;;1.40;;
41829;SDS011;38614;43.472;23.936;2022-08-19T14:50:09;3.00;;;1.50;;
41829;SDS011;38614;43.472;23.936;2022-08-19T14:53:05;1.48;;;1.30;;
41829;SDS011;38614;43.472;23.936;2022-08-19T14:56:01;6.85;;;1.15;;
41829;SDS011;38614;43.472;23.936;2022-08-19T14:58:49;2.15;;;1.00;;
41829;SDS011;38614;43.472;23.936;2022-08-19T15:01:41;2.80;;;1.55;;
41829;SDS011;38614;43.472;23.936;2022-08-19T15:04:29;2.35;;;1.73;;
41829;SDS011;38614;43.472;23.936;2022-08-19T15:07:22;2.72;;;1.40;;
41829;SDS011;38614;43.472;23.936;2022-08-19T15:10:15;5.10;;;1.30;;
41829;SDS011;38614;43.472;23.936;2022-08-19T15:13:05;2.30;;;1.73;;
41829;SDS011;38614;43.472;23.936;2022-08-19T15:15:53;4.00;;;1.67;;
41829;SDS011;38614;43.472;23.936;2022-08-19T15:18:41;3.10;;;1.20;;
41829;SDS011;38614;43.472;23.936;2022-08-19T15:21:32;9.18;;;1.42;;
41829;SDS011;38614;43.472;23.936;2022-08-19T15:24:20;4.30;;;1.30;;
41829;SDS011;38614;43.472;23.936;2022-08-19T15:27:12;4.55;;;1.42;;
41829;SDS011;38614;43.472;23.936;2022-08-19T15:29:59;6.20;;;1.58;;
41829;SDS011;38614;43.472;23.936;2022-08-19T15:32:50;4.65;;;1.67;;
41829;SDS011;38614;43.472;23.936;2022-08-19T15:35:40;6.32;;;1.70;;
41829;SDS011;38614;43.472;23.936;2022-08-19T15:38:28;9.35;;;1.20;;
41829;SDS011;38614;43.472;23.936;2022-08-19T15:41:17;2.17;;;1.60;;
41829;SDS011;38614;43.472;23.936;2022-08-19T15:44:12;6.35;;;1.70;;
41829;SDS011;38614;43.472;23.936;2022-08-19T15:47:00;2.42;;;1.25;;
41829;SDS011;38614;43.472;23.936;2022-08-19T15:49:48;3.80;;;1.27;;
41829;SDS011;38614;43.472;23.936;2022-08-19T15:52:36;4.07;;;2.10;;
41829;SDS011;38614;43.472;23.936;2022-08-19T15:55:41;5.70;;;1.77;;
41829;SDS011;38614;43.472;23.936;2022-08-19T15:58:29;1.65;;;1.17;;
41829;SDS011;38614;43.472;23.936;2022-08-19T16:01:38;7.32;;;1.60;;
41829;SDS011;38614;43.472;23.936;2022-08-19T16:04:44;3.53;;;1.35;;
41829;SDS011;38614;43.472;23.936;2022-08-19T16:07:50;3.22;;;1.58;;
41829;SDS011;38614;43.472;23.936;2022-08-19T16:10:45;3.05;;;1.52;;
41829;SDS011;38614;43.472;23.936;2022-08-19T16:13:32;1.55;;;1.05;;
41829;SDS011;38614;43.472;23.936;2022-08-19T16:16:25;3.45;;;1.40;;
41829;SDS011;38614;43.472;23.936;2022-08-19T16:19:19;3.17;;;1.65;;
41829;SDS011;38614;43.472;23.936;2022-08-19T16:22:11;1.83;;;1.70;;
41829;SDS011;38614;43.472;23.936;2022-08-19T16:24:59;2.17;;;1.40;;
41829;SDS011;38614;43.472;23.936;2022-08-19T16:27:47;1.92;;;1.67;;
41829;SDS011;38614;43.472;23.936;2022-08-19T16:30:54;2.35;;;1.65;;
41829;SDS011;38614;43.472;23.936;2022-08-19T16:33:41;2.88;;;2.22;;
41829;SDS011;38614;43.472;23.936;2022-08-19T16:36:29;7.78;;;1.45;;
41829;SDS011;38614;43.472;23.936;2022-08-19T16:39:17;7.35;;;2.45;;
41829;SDS011;38614;43.472;23.936;2022-08-19T16:42:09;4.82;;;1.40;;
41829;SDS011;38614;43.472;23.936;2022-08-19T16:45:00;1.95;;;1.58;;
41829;SDS011;38614;43.472;23.936;2022-08-19T16:47:48;3.75;;;2.13;;
41829;SDS011;38614;43.472;23.936;2022-08-19T16:50:36;3.50;;;1.63;;
41829;SDS011;38614;43.472;23.936;2022-08-19T16:53:36;2.53;;;1.67;;
41829;SDS011;38614;43.472;23.936;2022-08-19T16:56:24;4.43;;;2.00;;
41829;SDS011;38614;43.472;23.936;2022-08-19T16:59:11;4.45;;;2.08;;
41829;SDS011;38614;43.472;23.936;2022-08-19T17:02:02;4.80;;;2.03;;
41829;SDS011;38614;43.472;23.936;2022-08-19T17:04:50;2.25;;;1.45;;
41829;SDS011;38614;43.472;23.936;2022-08-19T17:07:47;4.60;;;1.63;;
41829;SDS011;38614;43.472;23.936;2022-08-19T17:10:35;5.97;;;1.90;;
41829;SDS011;38614;43.472;23.936;2022-08-19T17:13:25;1.35;;;1.25;;